Time;durP1;ratioP1;P1;durP2;ratioP2;P2;SDS_P1;SDS_P2;PMS_P1;PMS_P2;Temp;Humidity;BMP_temperature;BMP_pressure;BME280_temperature;BME280_humidity;BME280_pressure;Samples;Min_cycle;Max_cycle;Signal;HPM_P1;HPM_P2
2022/01/02 11:23:07;;;;;;;14.60;1.83;;;13.50;87.00;;;;;;4821478;27;8897285;-80
2022/01/02 11:25:37;;;;;;;;;;;13.70;86.60;;;;;;5110506;28;20054;-78
2022/01/02 11:28:14;;;;;;;7.90;1.80;;;14.10;85.60;;;;;;5109496;28;19920;-80
2022/01/02 11:30:41;;;;;;;12.10;2.03;;;14.40;84.60;;;;;;5092303;28;20059;-80
2022/01/02 11:33:19;;;;;;;11.77;2.42;;;14.60;83.90;;;;;;5110189;28;20106;-77
2022/01/02 11:35:49;;;;;;;12.55;2.38;;;14.80;83.00;;;;;;5112180;28;20032;-81
2022/01/02 11:38:19;;;;;;;14.40;3.30;;;15.00;81.60;;;;;;5097504;28;20032;-78
2022/01/02 11:40:49;;;;;;;12.57;2.58;;;15.20;81.20;;;;;;5091295;28;20437;-79
2022/01/02 11:43:49;;;;;;;12.68;2.10;;;15.30;80.60;;;;;;5092459;28;20063;-84
2022/01/02 11:46:30;;;;;;;10.83;2.20;;;15.30;80.30;;;;;;5094018;28;20070;-78
2022/01/02 11:49:05;;;;;;;7.40;1.77;;;15.30;80.20;;;;;;5106888;28;20829;-78
2022/01/02 11:51:49;;;;;;;13.88;2.50;;;15.30;80.10;;;;;;5100127;28;20410;-77
2022/01/02 11:56:56;;;;;;;12.07;2.80;;;15.30;79.00;;;;;;5096219;28;20032;-79
2022/01/02 11:59:40;;;;;;;9.95;2.90;;;15.20;79.20;;;;;;5106053;28;20032;-82
2022/01/02 12:02:13;;;;;;;11.10;1.80;;;15.20;79.50;;;;;;5102001;28;20039;-78
2022/01/02 12:07:35;;;;;;;20.27;2.50;;;15.20;79.40;;;;;;5097216;28;20069;-80
2022/01/02 12:12:59;;;;;;;12.98;2.17;;;15.10;79.50;;;;;;5100497;28;20035;-78
2022/01/02 12:15:45;;;;;;;12.43;2.10;;;15.20;79.80;;;;;;5108635;28;20024;-77
2022/01/02 12:18:19;;;;;;;6.82;1.48;;;15.10;79.70;;;;;;5105185;28;20036;-82
2022/01/02 12:20:56;;;;;;;9.77;1.90;;;15.10;79.80;;;;;;5100080;28;20510;-83
2022/01/02 12:23:45;;;;;;;21.60;2.80;;;15.20;80.10;;;;;;5098912;28;20043;-77
2022/01/02 12:26:13;;;;;;;8.23;1.60;;;15.20;79.60;;;;;;5110854;28;20141;-78
2022/01/02 12:28:47;;;;;;;11.25;2.25;;;15.20;79.60;;;;;;5125661;28;20390;-79
2022/01/02 12:31:15;;;;;;;11.20;2.15;;;15.20;79.50;;;;;;5124375;28;20099;-79
2022/01/02 12:33:42;;;;;;;11.63;1.92;;;15.20;79.60;;;;;;5116769;28;20497;-79
2022/01/02 12:36:19;;;;;;;19.70;2.90;;;15.30;79.40;;;;;;5102703;28;20049;-79
2022/01/02 12:38:52;;;;;;;12.00;2.13;;;15.30;79.30;;;;;;5081935;28;20039;-79
2022/01/02 12:41:26;;;;;;;11.77;2.45;;;15.40;78.70;;;;;;5095169;28;20031;-80
2022/01/02 12:43:56;;;;;;;9.75;2.53;;;15.50;78.50;;;;;;5078650;28;20051;-76
2022/01/02 12:46:53;;;;;;;11.15;2.85;;;15.50;78.30;;;;;;5097145;28;20027;-79
2022/01/02 12:49:30;;;;;;;7.13;1.60;;;15.60;77.90;;;;;;5096207;28;20034;-78
2022/01/02 12:52:10;;;;;;;10.43;2.20;;;15.60;77.90;;;;;;5098401;28;20027;-79
2022/01/02 12:54:41;;;;;;;14.48;2.47;;;15.60;78.30;;;;;;5129768;27;20059;-78
2022/01/02 12:57:09;;;;;;;10.93;2.17;;;15.70;78.50;;;;;;5116079;27;20088;-80
2022/01/02 12:59:40;;;;;;;12.82;1.90;;;15.70;78.10;;;;;;5112336;28;20470;-78
2022/01/02 13:02:15;;;;;;;12.65;2.22;;;15.70;78.00;;;;;;5116890;28;20034;-77
2022/01/02 13:04:46;;;;;;;12.32;1.85;;;15.70;77.20;;;;;;5114659;28;20015;-77
2022/01/02 13:07:23;;;;;;;11.55;2.17;;;15.70;77.00;;;;;;5114547;28;20020;-77
2022/01/02 13:09:51;;;;;;;18.23;3.03;;;15.80;77.40;;;;;;5115051;28;20032;-77
2022/01/02 13:12:24;;;;;;;12.52;3.05;;;16.00;76.40;;;;;;5115565;28;20019;-75
2022/01/02 13:15:07;;;;;;;23.90;3.78;;;16.00;76.20;;;;;;5117025;27;20046;-74
2022/01/02 13:17:34;;;;;;;14.25;1.80;;;15.90;76.00;;;;;;5137158;27;20055;-74
2022/01/02 13:20:18;;;;;;;9.23;2.38;;;15.90;76.10;;;;;;5079135;28;20122;-75
2022/01/02 13:22:45;;;;;;;17.20;3.95;;;15.80;76.60;;;;;;5113448;28;20058;-74
2022/01/02 13:25:28;;;;;;;14.68;3.03;;;15.70;76.60;;;;;;5097481;27;20477;-74
2022/01/02 13:28:01;;;;;;;13.73;3.00;;;15.70;76.70;;;;;;5132973;27;20034;-74
2022/01/02 13:30:51;;;;;;;14.65;2.30;;;15.60;76.40;;;;;;5137858;27;20023;-75
2022/01/02 13:33:24;;;;;;;;;;;15.60;76.80;;;;;;5087368;28;20027;-74
2022/01/02 13:35:52;;;;;;;18.35;2.55;;;15.50;76.80;;;;;;5094504;28;19908;-74
2022/01/02 13:38:18;;;;;;;12.10;2.47;;;15.50;76.60;;;;;;5097836;28;20035;-75
2022/01/02 13:40:46;;;;;;;15.60;2.97;;;15.50;76.80;;;;;;5096826;28;20051;-74
2022/01/02 13:43:18;;;;;;;10.27;2.70;;;15.50;76.50;;;;;;5098101;28;20024;-74
2022/01/02 13:45:46;;;;;;;12.75;2.45;;;15.50;76.90;;;;;;5087089;28;20035;-74
2022/01/02 13:48:17;;;;;;;11.00;1.95;;;15.50;76.50;;;;;;5097568;28;20032;-74
2022/01/02 13:50:45;;;;;;;11.40;2.03;;;15.60;76.30;;;;;;5113503;28;20016;-75
2022/01/02 13:53:31;;;;;;;9.65;1.88;;;15.70;75.80;;;;;;5115210;28;20019;-75
2022/01/02 13:56:06;;;;;;;16.85;3.03;;;15.80;75.90;;;;;;5115805;28;20762;-75
2022/01/02 13:58:38;;;;;;;17.48;2.95;;;15.70;75.30;;;;;;5114575;28;20035;-76
2022/01/02 14:01:14;;;;;;;11.45;2.05;;;15.70;75.50;;;;;;5094582;28;20122;-75
2022/01/02 14:03:41;;;;;;;8.32;1.80;;;15.70;75.40;;;;;;5113096;28;20020;-75
2022/01/02 14:06:10;;;;;;;11.05;2.08;;;15.80;75.20;;;;;;5114007;27;20016;-75
2022/01/02 14:08:44;;;;;;;13.88;2.63;;;15.70;75.20;;;;;;5116408;28;20030;-76
2022/01/02 14:11:13;;;;;;;11.52;1.95;;;15.80;75.50;;;;;;5114418;28;20012;-78
2022/01/02 14:13:53;;;;;;;12.82;2.45;;;15.70;75.30;;;;;;5115698;28;20020;-78
2022/01/02 14:19:06;;;;;;;13.23;1.95;;;15.60;75.60;;;;;;5056372;28;20042;-78
2022/01/02 14:21:35;;;;;;;8.90;2.15;;;15.50;76.10;;;;;;5096170;28;20040;-77
2022/01/02 14:24:05;;;;;;;8.53;1.63;;;15.50;76.00;;;;;;5096801;28;20028;-78
2022/01/02 14:26:32;;;;;;;18.55;2.80;;;15.60;75.90;;;;;;5114662;28;20265;-77
2022/01/02 14:28:59;;;;;;;13.15;2.65;;;15.50;76.10;;;;;;5096718;28;20020;-78
2022/01/02 14:31:30;;;;;;;23.45;3.22;;;15.50;75.80;;;;;;5110578;28;20106;-79
2022/01/02 14:33:56;;;;;;;12.30;2.42;;;15.50;76.00;;;;;;5113679;28;20520;-78
2022/01/02 14:36:21;;;;;;;9.75;2.08;;;15.40;76.30;;;;;;5114587;28;20423;-78
2022/01/02 14:38:48;;;;;;;15.70;2.33;;;15.50;76.50;;;;;;5093066;28;20035;-78
2022/01/02 14:41:17;;;;;;;11.25;1.95;;;15.60;76.20;;;;;;5095125;28;20432;-78
2022/01/02 14:43:43;;;;;;;17.05;2.50;;;15.50;76.00;;;;;;5113759;28;20011;-77
2022/01/02 14:46:09;;;;;;;13.48;2.50;;;15.50;76.00;;;;;;5096526;28;20031;-76
2022/01/02 14:48:35;;;;;;;13.35;2.53;;;15.50;75.70;;;;;;5095067;27;20072;-78
2022/01/02 14:51:00;;;;;;;13.85;3.13;;;15.50;75.20;;;;;;5096406;28;20028;-78
2022/01/02 14:53:29;;;;;;;17.15;2.20;;;15.50;75.40;;;;;;5103459;28;20576;-79
2022/01/02 14:55:55;;;;;;;9.38;2.13;;;15.40;75.20;;;;;;5095085;28;20027;-78
2022/01/02 14:58:21;;;;;;;9.48;1.98;;;15.40;75.00;;;;;;5096124;28;20038;-79
2022/01/02 15:00:49;;;;;;;6.88;1.90;;;15.50;75.00;;;;;;5110665;28;20106;-78
2022/01/02 15:03:15;;;;;;;9.57;1.63;;;15.40;75.40;;;;;;5113810;28;20631;-79
2022/01/02 15:05:41;;;;;;;14.27;2.60;;;15.30;74.90;;;;;;5114388;28;20020;-78
2022/01/02 15:08:10;;;;;;;17.95;2.70;;;15.40;74.60;;;;;;5111416;28;20020;-80
2022/01/02 15:10:36;;;;;;;13.68;3.17;;;15.30;74.70;;;;;;5094094;28;20122;-79
2022/01/02 15:13:02;;;;;;;14.80;2.00;;;15.30;74.60;;;;;;5114094;28;20504;-80
2022/01/02 15:15:28;;;;;;;9.43;1.70;;;15.30;73.80;;;;;;5096954;28;20437;-91
2022/01/02 15:17:54;;;;;;;21.25;3.08;;;15.30;74.40;;;;;;5096524;28;20046;-87
2022/01/02 15:20:21;;;;;;;11.45;2.35;;;15.20;74.30;;;;;;5115035;28;20020;-88
2022/01/02 15:22:47;;;;;;;9.95;1.75;;;15.20;74.00;;;;;;5111287;28;20035;-87
2022/01/02 15:25:13;;;;;;;8.77;1.83;;;15.20;73.80;;;;;;5108541;28;20049;-88
2022/01/02 15:27:38;;;;;;;10.80;2.45;;;15.10;73.00;;;;;;5111456;28;20042;-88
2022/01/02 15:30:06;;;;;;;14.15;2.53;;;15.00;74.00;;;;;;5115258;28;20074;-91
2022/01/02 15:32:34;;;;;;;20.92;3.78;;;15.00;73.60;;;;;;5096204;28;20031;-89
2022/01/02 15:35:07;;;;;;;12.05;2.28;;;15.00;73.60;;;;;;5116381;28;20049;-85
2022/01/02 15:37:34;;;;;;;5.75;1.98;;;14.90;73.90;;;;;;5111769;28;20370;-87
2022/01/02 15:40:05;;;;;;;15.18;2.75;;;14.80;74.10;;;;;;5121478;28;20045;-91
2022/01/02 15:42:31;;;;;;;14.63;2.50;;;14.80;73.80;;;;;;5097562;28;20043;-87
2022/01/02 15:44:57;;;;;;;12.30;2.33;;;14.80;73.60;;;;;;5091730;28;20284;-83
2022/01/02 15:47:22;;;;;;;11.07;2.53;;;14.80;73.90;;;;;;5096535;28;20035;-86
2022/01/02 15:49:51;;;;;;;8.75;2.53;;;14.70;74.10;;;;;;5096540;28;20100;-84
2022/01/02 15:52:17;;;;;;;11.20;2.10;;;14.70;74.10;;;;;;5094200;28;20029;-86
2022/01/02 15:54:49;;;;;;;11.65;3.00;;;14.70;74.40;;;;;;5077258;28;20070;-90
2022/01/02 15:59:20;;;;;;;14.05;2.03;;;14.50;75.00;;;;;;5074136;28;20378;-80
2022/01/02 16:01:48;;;;;;;14.90;2.83;;;14.30;75.20;;;;;;5064777;28;20029;-81
2022/01/02 16:04:14;;;;;;;12.25;3.40;;;14.30;75.60;;;;;;5066638;28;20028;-81
2022/01/02 16:06:42;;;;;;;19.77;2.22;;;14.30;75.40;;;;;;5070111;28;20020;-84
2022/01/02 16:09:07;;;;;;;8.57;2.25;;;14.40;75.30;;;;;;5065528;28;20137;-78
2022/01/02 16:11:33;;;;;;;13.52;2.97;;;14.40;75.10;;;;;;5066416;28;20056;-78
2022/01/02 16:14:00;;;;;;;14.00;2.85;;;14.50;74.90;;;;;;5068385;28;20482;-78
2022/01/02 16:16:26;;;;;;;11.65;2.53;;;14.50;74.80;;;;;;5069665;28;20028;-78
2022/01/02 16:18:51;;;;;;;13.00;2.70;;;14.50;75.10;;;;;;5065907;28;20180;-78
2022/01/02 16:21:17;;;;;;;10.38;2.28;;;14.50;75.00;;;;;;5069077;28;20028;-78
2022/01/02 16:23:43;;;;;;;12.43;2.65;;;14.40;74.70;;;;;;5065295;28;20029;-78
2022/01/02 16:26:09;;;;;;;13.63;2.85;;;14.40;75.10;;;;;;5072294;28;20656;-78
2022/01/02 16:28:35;;;;;;;13.80;3.42;;;14.30;75.20;;;;;;5069266;28;20398;-79
2022/01/02 16:31:00;;;;;;;12.98;2.67;;;14.40;75.30;;;;;;5070187;28;20047;-78
2022/01/02 16:33:27;;;;;;;10.93;2.58;;;14.40;75.30;;;;;;5069713;28;20029;-78
2022/01/02 16:35:53;;;;;;;13.15;3.30;;;14.30;75.50;;;;;;5067019;28;20090;-78
2022/01/02 16:38:19;;;;;;;12.32;2.97;;;14.30;75.30;;;;;;5069461;28;20021;-78
2022/01/02 16:40:46;;;;;;;9.85;3.08;;;14.30;75.40;;;;;;5069217;28;20634;-79
2022/01/02 16:43:13;;;;;;;21.98;2.90;;;14.20;75.50;;;;;;5061409;28;20023;-79
2022/01/02 16:45:40;;;;;;;18.58;2.92;;;14.30;75.60;;;;;;5067472;28;20060;-79
2022/01/02 16:48:05;;;;;;;14.73;2.47;;;14.20;75.40;;;;;;5066066;28;20103;-79
2022/01/02 16:50:32;;;;;;;14.07;2.47;;;14.20;75.70;;;;;;5064609;28;20111;-79
2022/01/02 16:52:58;;;;;;;20.48;2.97;;;14.20;75.40;;;;;;5069617;28;20017;-79
2022/01/02 16:55:24;;;;;;;10.30;1.88;;;14.10;75.60;;;;;;5065471;28;20029;-79
2022/01/02 16:57:51;;;;;;;7.57;2.03;;;14.10;75.70;;;;;;5068965;28;20037;-78
2022/01/02 17:00:17;;;;;;;17.63;3.72;;;14.00;75.80;;;;;;5070491;28;20069;-79
2022/01/02 17:02:46;;;;;;;23.00;6.97;;;14.00;75.80;;;;;;5082249;28;20505;-80
2022/01/02 17:05:13;;;;;;;24.55;3.50;;;14.00;76.00;;;;;;5056321;28;20060;-79
2022/01/02 17:07:39;;;;;;;16.98;4.75;;;14.00;76.00;;;;;;5064352;28;20031;-80
2022/01/02 17:10:05;;;;;;;19.45;5.47;;;14.00;75.70;;;;;;5072720;28;20032;-79
2022/01/02 17:12:31;;;;;;;19.48;4.47;;;13.90;76.10;;;;;;5040449;28;20025;-79
2022/01/02 17:14:57;;;;;;;13.48;2.97;;;13.80;76.20;;;;;;5050313;28;20589;-79
2022/01/02 17:17:22;;;;;;;10.45;3.15;;;13.80;76.40;;;;;;5047741;28;20034;-79
2022/01/02 17:19:49;;;;;;;8.88;2.22;;;13.80;76.50;;;;;;5054100;28;20546;-79
2022/01/02 17:22:15;;;;;;;12.00;2.63;;;13.80;76.70;;;;;;5055452;28;20390;-79
2022/01/02 17:24:41;;;;;;;17.65;3.00;;;13.80;76.70;;;;;;5054012;28;20025;-79
2022/01/02 17:27:07;;;;;;;16.23;3.13;;;13.80;76.60;;;;;;5053615;28;20534;-79
2022/01/02 17:29:35;;;;;;;15.52;3.00;;;13.80;77.00;;;;;;5055620;28;20025;-81
2022/01/02 17:32:03;;;;;;;12.10;2.75;;;13.70;77.40;;;;;;5051747;28;20036;-79
2022/01/02 17:34:36;;;;;;;10.25;2.53;;;13.70;77.50;;;;;;5051983;28;20017;-80
2022/01/02 17:37:12;;;;;;;18.08;5.47;;;13.70;77.60;;;;;;5052709;28;20017;-78
2022/01/02 17:39:38;;;;;;;18.65;3.60;;;13.60;77.90;;;;;;5054228;28;20506;-78
2022/01/02 17:42:04;;;;;;;18.90;4.18;;;13.60;78.10;;;;;;5051851;28;20048;-78
2022/01/02 17:44:31;;;;;;;12.43;3.85;;;13.70;78.10;;;;;;5054789;28;20104;-78
2022/01/02 17:46:57;;;;;;;8.02;2.75;;;13.60;78.20;;;;;;5050846;28;20021;-77
2022/01/02 17:49:24;;;;;;;18.27;3.15;;;13.50;78.40;;;;;;5048943;28;20025;-77
2022/01/02 17:51:50;;;;;;;15.98;3.35;;;13.50;78.60;;;;;;5052834;28;20032;-77
2022/01/02 17:54:18;;;;;;;13.10;2.88;;;13.40;78.80;;;;;;5058112;28;20096;-78
2022/01/02 17:56:44;;;;;;;11.80;3.25;;;13.30;79.10;;;;;;5047000;28;20381;-80
2022/01/02 17:59:10;;;;;;;17.73;2.78;;;13.30;79.60;;;;;;5054996;28;20090;-74
2022/01/02 18:01:36;;;;;;;16.42;3.03;;;13.30;79.40;;;;;;5052982;28;20035;-81
2022/01/02 18:04:04;;;;;;;12.40;3.45;;;13.40;79.40;;;;;;5054751;28;20112;-82
2022/01/02 18:06:30;;;;;;;21.73;4.03;;;13.40;79.00;;;;;;5050969;28;20044;-83
2022/01/02 18:09:07;;;;;;;16.83;3.63;;;13.40;79.10;;;;;;5055691;28;20032;-80
2022/01/02 18:11:33;;;;;;;8.18;2.38;;;13.30;79.40;;;;;;5050015;28;20036;-78
2022/01/02 18:13:59;;;;;;;13.65;3.63;;;13.40;79.50;;;;;;5051073;28;20033;-80
2022/01/02 18:16:25;;;;;;;14.25;3.92;;;13.40;79.40;;;;;;5054332;28;20025;-78
2022/01/02 18:18:50;;;;;;;16.52;3.65;;;13.40;79.60;;;;;;5054482;28;20391;-80
2022/01/02 18:21:17;;;;;;;13.70;3.15;;;13.40;79.70;;;;;;5054110;28;20080;-80
2022/01/02 18:23:43;;;;;;;22.15;3.45;;;13.40;79.60;;;;;;5053312;28;20031;-76
2022/01/02 18:26:14;;;;;;;15.00;2.10;;;13.50;79.70;;;;;;5051727;28;20403;-81
2022/01/02 18:28:50;;;;;;;20.85;3.05;;;13.50;79.40;;;;;;5052505;28;20028;-76
2022/01/02 18:31:17;;;;;;;12.25;3.53;;;13.40;79.80;;;;;;5054308;28;20036;-75
2022/01/02 18:33:43;;;;;;;16.52;3.30;;;13.30;80.10;;;;;;5054380;28;20029;-76
2022/01/02 18:36:09;;;;;;;14.27;3.22;;;13.30;80.20;;;;;;5054828;28;20598;-73
2022/01/02 18:38:34;;;;;;;22.20;3.00;;;13.30;80.30;;;;;;5038408;28;20469;-74
2022/01/02 18:41:02;;;;;;;11.73;2.40;;;13.30;80.00;;;;;;5044494;28;20029;-76
2022/01/02 18:43:30;;;;;;;19.52;2.83;;;13.20;80.00;;;;;;5044775;28;20044;-76
2022/01/02 18:45:56;;;;;;;13.85;3.40;;;13.20;80.10;;;;;;5041875;28;20029;-87
2022/01/02 18:48:23;;;;;;;23.50;3.35;;;13.20;80.00;;;;;;5046382;28;20045;-79
2022/01/02 18:50:49;;;;;;;13.07;2.22;;;13.30;79.80;;;;;;5049444;28;20396;-81
2022/01/02 18:53:15;;;;;;;13.68;2.67;;;13.30;79.50;;;;;;5047625;28;20395;-80
2022/01/02 18:55:41;;;;;;;14.00;2.47;;;13.20;79.60;;;;;;5037887;28;20317;-77
2022/01/02 18:58:07;;;;;;;10.52;2.47;;;13.20;79.30;;;;;;5041539;28;20119;-78
2022/01/02 19:00:33;;;;;;;17.92;4.38;;;13.20;79.60;;;;;;5052821;28;20033;-84
2022/01/02 19:03:03;;;;;;;16.92;3.28;;;13.20;79.50;;;;;;5045783;28;20077;-81
2022/01/02 19:05:29;;;;;;;18.30;4.30;;;13.10;79.60;;;;;;5041928;28;20091;-81
2022/01/02 19:07:54;;;;;;;23.83;4.03;;;13.10;79.70;;;;;;5039861;28;20029;-83
2022/01/02 19:10:20;;;;;;;7.60;2.28;;;13.20;79.70;;;;;;5051576;28;20035;-80
2022/01/02 19:12:46;;;;;;;11.05;2.20;;;13.20;79.80;;;;;;5045557;28;20056;-83
2022/01/02 19:15:12;;;;;;;22.05;3.42;;;13.20;79.80;;;;;;5043474;28;20059;-80
2022/01/02 19:17:38;;;;;;;18.42;3.72;;;13.20;79.60;;;;;;5044643;28;20956;-81
2022/01/02 19:20:07;;;;;;;11.15;2.72;;;13.20;79.50;;;;;;5039829;28;20021;-82
2022/01/02 19:22:33;;;;;;;14.95;2.95;;;13.20;79.80;;;;;;5040183;28;20010;-78
2022/01/02 19:24:59;;;;;;;15.80;3.60;;;13.20;80.10;;;;;;5039700;28;20026;-78
2022/01/02 19:27:25;;;;;;;19.13;3.85;;;13.20;80.10;;;;;;5036397;28;20033;-76
2022/01/02 19:29:52;;;;;;;17.83;2.78;;;13.20;80.00;;;;;;5042251;28;20095;-78
2022/01/02 19:32:18;;;;;;;15.07;3.33;;;13.20;79.80;;;;;;5048059;28;20032;-77
2022/01/02 19:34:44;;;;;;;12.95;2.15;;;13.10;79.80;;;;;;5041178;28;20037;-77
2022/01/02 19:37:11;;;;;;;11.15;2.63;;;13.10;80.00;;;;;;5044830;28;20025;-78
2022/01/02 19:39:38;;;;;;;17.88;3.40;;;13.10;80.00;;;;;;5052327;28;20013;-78
2022/01/02 19:42:05;;;;;;;16.90;3.13;;;13.10;80.20;;;;;;5048391;28;20017;-79
2022/01/02 19:44:31;;;;;;;12.88;2.83;;;13.10;80.30;;;;;;5043221;28;20041;-78
2022/01/02 19:46:57;;;;;;;14.02;3.90;;;13.10;80.00;;;;;;5050312;28;20082;-77
2022/01/02 19:49:23;;;;;;;19.10;3.35;;;13.10;80.20;;;;;;5044686;28;20483;-78
2022/01/02 19:51:49;;;;;;;16.52;2.95;;;13.10;80.10;;;;;;5045860;28;20021;-77
2022/01/02 19:54:15;;;;;;;19.50;3.10;;;13.20;80.00;;;;;;5038178;28;20032;-78
2022/01/02 19:56:41;;;;;;;13.82;2.60;;;13.20;80.00;;;;;;5038558;28;20025;-77
2022/01/02 19:59:07;;;;;;;13.43;3.22;;;13.20;80.00;;;;;;5037790;28;20457;-75
2022/01/02 20:01:33;;;;;;;19.90;2.80;;;13.20;80.00;;;;;;5036733;28;20048;-74
2022/01/02 20:03:59;;;;;;;11.88;3.13;;;13.10;80.30;;;;;;5035223;28;20036;-74
2022/01/02 20:06:25;;;;;;;17.23;2.38;;;13.10;80.30;;;;;;5041943;28;20032;-74
2022/01/02 20:08:50;;;;;;;14.77;3.20;;;13.10;80.40;;;;;;5039027;28;20571;-75
2022/01/02 20:11:19;;;;;;;17.45;3.08;;;13.10;80.50;;;;;;5041560;28;20456;-75
2022/01/02 20:13:46;;;;;;;17.10;4.07;;;13.00;80.50;;;;;;5047155;28;20103;-75
2022/01/02 20:16:12;;;;;;;18.00;3.25;;;13.10;80.60;;;;;;5044424;28;20041;-75
2022/01/02 20:18:38;;;;;;;21.65;3.67;;;13.00;80.70;;;;;;5039179;28;20402;-76
2022/01/02 20:21:08;;;;;;;19.88;3.28;;;13.10;80.70;;;;;;5042976;28;20045;-75
2022/01/02 20:23:37;;;;;;;14.30;3.08;;;13.00;80.80;;;;;;5041565;28;20021;-78
2022/01/02 20:26:03;;;;;;;12.77;3.35;;;13.00;80.90;;;;;;5035855;28;20026;-82
2022/01/02 20:28:32;;;;;;;12.95;2.72;;;13.00;81.00;;;;;;5040250;28;20032;-81
2022/01/02 20:31:00;;;;;;;11.38;2.95;;;13.00;81.00;;;;;;5039163;28;20628;-83
2022/01/02 20:33:55;;;;;;;20.35;3.03;;;13.00;80.90;;;;;;5040246;28;20040;-83
2022/01/02 20:36:21;;;;;;;14.55;2.83;;;13.10;80.80;;;;;;5029302;28;20033;-84
2022/01/02 20:38:47;;;;;;;14.38;2.85;;;13.10;80.60;;;;;;5038276;28;20021;-82
2022/01/02 20:41:16;;;;;;;16.63;2.85;;;13.00;80.90;;;;;;5041805;28;20029;-80
2022/01/02 20:43:41;;;;;;;25.25;2.63;;;13.10;80.90;;;;;;5035749;28;20020;-80
2022/01/02 20:46:10;;;;;;;13.77;3.17;;;13.00;81.00;;;;;;5047465;28;20116;-82
2022/01/02 20:48:36;;;;;;;14.23;3.08;;;13.10;80.90;;;;;;5042380;28;20025;-81
2022/01/02 20:51:13;;;;;;;18.88;2.47;;;13.20;80.80;;;;;;5044947;28;20512;-80
2022/01/02 20:53:39;;;;;;;11.90;2.40;;;13.10;81.00;;;;;;5041779;28;20106;-80
2022/01/02 20:56:05;;;;;;;13.10;2.42;;;13.00;81.10;;;;;;5040598;28;20041;-79
2022/01/02 20:58:31;;;;;;;17.13;3.00;;;13.00;81.20;;;;;;5046885;28;20045;-82
2022/01/02 21:00:57;;;;;;;13.20;2.97;;;13.00;81.10;;;;;;5048824;28;20124;-80
2022/01/02 21:03:24;;;;;;;14.60;2.50;;;13.00;81.10;;;;;;5042444;28;20025;-80
2022/01/02 21:05:50;;;;;;;13.27;2.08;;;13.00;81.00;;;;;;5036245;28;20022;-79
2022/01/02 21:08:20;;;;;;;13.23;2.58;;;13.00;81.10;;;;;;5038468;28;20021;-80
2022/01/02 21:10:47;;;;;;;11.75;3.40;;;13.00;81.30;;;;;;5037398;28;20025;-80
2022/01/02 21:13:13;;;;;;;14.32;2.85;;;12.90;81.20;;;;;;5038487;28;20040;-80
2022/01/02 21:15:40;;;;;;;19.50;3.47;;;13.00;81.20;;;;;;5040574;28;20029;-80
2022/01/02 21:18:06;;;;;;;15.27;2.90;;;13.00;81.20;;;;;;5040860;28;20071;-80
2022/01/02 21:20:32;;;;;;;11.20;2.53;;;12.90;81.30;;;;;;5039379;28;20026;-80
2022/01/02 21:22:58;;;;;;;22.55;2.60;;;12.90;81.40;;;;;;5037278;28;20025;-81
2022/01/02 21:25:25;;;;;;;15.90;2.47;;;13.00;81.10;;;;;;5045410;28;20081;-80
2022/01/02 21:27:51;;;;;;;12.15;2.58;;;13.00;81.10;;;;;;5040047;28;20503;-80
2022/01/02 21:30:18;;;;;;;10.95;2.22;;;12.90;81.60;;;;;;5039306;28;20045;-80
2022/01/02 21:32:47;;;;;;;16.25;2.72;;;12.80;81.60;;;;;;5038130;28;20557;-81
2022/01/02 21:35:16;;;;;;;15.63;3.75;;;12.90;81.80;;;;;;5038645;28;20061;-81
2022/01/02 21:37:44;;;;;;;19.30;2.80;;;12.80;81.60;;;;;;5040344;28;20086;-80
2022/01/02 21:40:11;;;;;;;20.27;3.80;;;12.90;81.80;;;;;;5045365;28;20032;-81
2022/01/02 21:42:37;;;;;;;14.63;3.25;;;12.80;81.80;;;;;;5045529;28;20404;-80
2022/01/02 21:45:03;;;;;;;16.13;3.58;;;12.80;81.80;;;;;;5050954;28;20032;-80
2022/01/02 21:47:55;;;;;;;12.25;2.50;;;12.80;81.80;;;;;;5053348;28;20025;-80
2022/01/02 21:50:24;;;;;;;20.92;3.67;;;12.90;81.90;;;;;;5056089;28;20136;-80
2022/01/02 21:52:51;;;;;;;14.57;2.83;;;12.80;81.90;;;;;;5056528;28;20028;-81
2022/01/02 21:55:17;;;;;;;9.48;2.45;;;12.80;82.00;;;;;;5056792;28;20029;-81
2022/01/02 21:57:43;;;;;;;25.33;3.25;;;12.80;82.10;;;;;;5048354;28;20132;-81
2022/01/02 22:00:11;;;;;;;15.50;2.42;;;12.80;82.20;;;;;;5057097;28;20075;-84
2022/01/02 22:02:39;;;;;;;14.25;3.67;;;12.80;82.30;;;;;;5037169;28;20029;-81
2022/01/02 22:05:11;;;;;;;15.43;2.67;;;12.80;82.40;;;;;;5048019;28;20017;-81
2022/01/02 22:07:37;;;;;;;21.45;2.38;;;12.70;82.40;;;;;;5050593;28;20248;-81
2022/01/02 22:10:06;;;;;;;17.63;2.78;;;12.70;82.40;;;;;;5052039;28;20036;-81
2022/01/02 22:12:31;;;;;;;11.52;2.47;;;12.70;82.40;;;;;;5037713;28;20090;-81
2022/01/02 22:14:59;;;;;;;14.85;2.97;;;12.70;82.40;;;;;;5055807;28;20515;-81
2022/01/02 22:17:26;;;;;;;13.43;2.60;;;12.70;82.40;;;;;;5047504;28;20029;-81
2022/01/02 22:19:52;;;;;;;16.70;3.22;;;12.80;82.30;;;;;;5036679;28;20032;-81
2022/01/02 22:22:18;;;;;;;20.10;3.45;;;12.80;82.30;;;;;;5044554;28;20415;-81
2022/01/02 22:24:50;;;;;;;21.27;3.55;;;12.80;82.30;;;;;;5056417;28;20021;-81
2022/01/02 22:30:10;;;;;;;11.73;2.50;;;12.70;82.50;;;;;;5033216;28;20045;-81
2022/01/02 22:32:37;;;;;;;13.98;2.38;;;12.70;82.40;;;;;;5052398;28;20033;-81
2022/01/02 22:35:03;;;;;;;9.25;3.08;;;12.70;82.40;;;;;;5057546;28;20522;-81
2022/01/02 22:37:30;;;;;;;13.27;2.63;;;12.80;82.40;;;;;;5036428;28;20064;-81
2022/01/02 22:39:56;;;;;;;11.60;2.47;;;12.70;82.50;;;;;;5048938;28;20024;-81
2022/01/02 22:42:23;;;;;;;11.57;2.47;;;12.70;82.60;;;;;;5056156;28;20025;-82
2022/01/02 22:44:49;;;;;;;12.02;3.28;;;12.80;82.60;;;;;;5054130;28;20026;-81
2022/01/02 22:47:17;;;;;;;14.52;2.10;;;12.70;82.50;;;;;;5036700;28;20140;-81
2022/01/02 22:49:46;;;;;;;13.40;2.47;;;12.80;82.60;;;;;;5036160;28;20029;-81
2022/01/02 22:52:13;;;;;;;11.13;2.67;;;12.70;82.60;;;;;;5037341;28;20143;-82
2022/01/02 22:54:40;;;;;;;18.20;3.45;;;12.80;82.60;;;;;;5035973;28;20361;-81
2022/01/02 22:57:07;;;;;;;15.25;2.85;;;12.70;82.70;;;;;;5037161;28;20030;-81
2022/01/02 22:59:35;;;;;;;15.05;2.58;;;12.60;82.80;;;;;;5035848;28;20246;-81
2022/01/02 23:02:06;;;;;;;17.27;2.28;;;12.60;82.90;;;;;;5036487;28;20022;-80
2022/01/02 23:04:32;;;;;;;22.17;2.95;;;12.70;82.80;;;;;;5035990;28;20018;-81
2022/01/02 23:06:58;;;;;;;9.77;1.98;;;12.70;82.70;;;;;;5038382;28;20025;-81
2022/01/02 23:09:25;;;;;;;16.40;2.67;;;12.60;82.80;;;;;;5057171;28;20115;-81
2022/01/02 23:11:54;;;;;;;20.50;2.97;;;12.60;83.20;;;;;;5075453;28;20494;-81
2022/01/02 23:14:20;;;;;;;19.80;3.07;;;12.50;83.20;;;;;;5049620;28;20075;-81
2022/01/02 23:16:49;;;;;;;17.48;2.55;;;12.50;83.40;;;;;;5035535;28;20033;-81
2022/01/02 23:19:18;;;;;;;14.45;2.47;;;12.60;83.20;;;;;;5037020;28;20033;-81
2022/01/02 23:21:50;;;;;;;18.10;2.75;;;12.60;83.20;;;;;;5035703;28;20104;-81
2022/01/02 23:24:34;;;;;;;14.85;2.40;;;12.60;83.20;;;;;;5035552;28;20108;-81
2022/01/02 23:27:01;;;;;;;16.50;3.42;;;12.60;83.00;;;;;;5034912;28;20386;-81
2022/01/02 23:29:30;;;;;;;23.50;2.80;;;12.60;83.10;;;;;;5034192;28;20033;-81
2022/01/02 23:31:56;;;;;;;13.35;2.33;;;12.60;83.00;;;;;;5048276;28;20029;-81
2022/01/02 23:34:21;;;;;;;11.75;2.05;;;12.50;83.30;;;;;;5055394;28;20035;-81
2022/01/02 23:36:48;;;;;;;21.33;3.33;;;12.50;83.30;;;;;;5056683;28;20102;-82
2022/01/02 23:39:13;;;;;;;13.23;2.47;;;12.50;83.40;;;;;;5042399;28;20125;-82
2022/01/02 23:41:39;;;;;;;10.50;1.90;;;12.50;83.50;;;;;;5036219;28;20075;-81
2022/01/02 23:44:05;;;;;;;10.38;1.98;;;12.50;83.50;;;;;;5036534;28;20025;-81
2022/01/02 23:46:38;;;;;;;14.68;2.50;;;12.50;83.80;;;;;;5034919;28;20022;-82
2022/01/02 23:49:19;;;;;;;14.48;2.92;;;12.50;83.90;;;;;;5036650;28;20037;-81
2022/01/02 23:51:53;;;;;;;14.70;3.30;;;12.50;83.80;;;;;;5035188;28;20056;-81
2022/01/02 23:54:18;;;;;;;18.63;2.53;;;12.50;83.80;;;;;;5036476;28;20025;-82
2022/01/02 23:56:49;;;;;;;20.35;2.92;;;12.50;83.90;;;;;;5053447;28;20491;-81
2022/01/02 23:59:17;;;;;;;16.92;2.35;;;12.50;83.90;;;;;;5056417;28;20052;-81
